MSC Jordan — HPMK — position and weather

sailwx.info

Track history (hours):
 
Tides and Currents Weather Stations Pressure Air Temp Water Temp Dewpoint Dewpoint Depression Visibility Wind Speed Wind Dir Waves Ship Positions

MSC Jordan

Last reported at 2016-Jun-27 12:33 UTC. Time now 2016-Jul-01 22:42 UTC.
Position N 13°56' W 017°24'.

Length 237 m; draft 10.4 m.

Type: Ship. MMSI: 355194000.

Date/timePositionNaut miles runAvg speedWind from/ knotsBaromVisibWave heightAir tempDewpointWater temp
2016-Jun-27 12:33N 13°56' W 017°24'2519.4
2016-Jun-27 11:17N 14°20' W 017°24'1419.2
2016-Jun-27 10:33N 14°34' W 017°23'7 7.2
2016-Jun-27 09:33N 14°41' W 017°26'0 0.2
2016-Jun-27 08:31N 14°41' W 017°26'0 0.0
2016-Jun-27 07:10N 14°41' W 017°26'0 0.0
2016-Jun-27 06:31N 14°41' W 017°26'0 0.0
2016-Jun-27 05:31N 14°41' W 017°26'0 0.0
2016-Jun-27 04:31N 14°41' W 017°26'0 0.0
2016-Jun-27 03:33N 14°41' W 017°26'0 0.0
2016-Jun-27 02:31N 14°41' W 017°26'0 0.0
2016-Jun-27 01:33N 14°41' W 017°26'0 0.0
2016-Jun-27 00:33N 14°41' W 017°26'0 0.0
2016-Jun-26 23:33N 14°41' W 017°26'1 0.5
2016-Jun-26 22:33N 14°41' W 017°25'4 4.0
2016-Jun-26 21:33N 14°39' W 017°21'1010.1
2016-Jun-26 20:33N 14°29' W 017°23'4 3.7
2016-Jun-26 19:34N 14°26' W 017°24'1 0.9
2016-Jun-26 18:33N 14°26' W 017°25'1 0.7
2016-Jun-26 17:33N 14°27' W 017°25'2 0.8
2016-Jun-26 14:33N 14°28' W 017°27'1 0.8
2016-Jun-26 13:29N 14°28' W 017°28'2 0.7
2016-Jun-26 11:05N 14°29' W 017°30'0 0.5
2016-Jun-26 10:28N 14°29' W 017°30'2 1.1
2016-Jun-26 09:05N 14°31' W 017°30'4 7.3
2016-Jun-26 08:33N 14°34' W 017°33'1818.2
2016-Jun-26 07:33N 14°52' W 017°36'2019.6
2016-Jun-26 06:33N 15°12' W 017°36'1919.6
2016-Jun-26 05:33N 15°31' W 017°37'2019.6
2016-Jun-26 04:33N 15°51' W 017°36'3919.5
2016-Jun-26 02:33N 16°30' W 017°38'2019.5
2016-Jun-26 01:33N 16°49' W 017°39'40719.0
2016-Jun-25 04:09N 23°34' W 016°57'1718.9
2016-Jun-25 03:13N 23°51' W 016°51'1319.0
2016-Jun-25 02:31N 24°03' W 016°47'4519.4
2016-Jun-25 00:13N 24°46' W 016°31'20619.3
2016-Jun-24 13:33N 28°01' W 015°17'10 9.6
2016-Jun-24 12:34N 28°08' W 015°25'0 0.1
2016-Jun-24 11:33N 28°08' W 015°25'0 0.0
2016-Jun-24 10:33N 28°08' W 015°25'0 0.0
2016-Jun-24 09:33N 28°08' W 015°25'0 0.0
2016-Jun-24 08:33N 28°08' W 015°25'0 0.0
2016-Jun-24 07:32N 28°08' W 015°25'0 0.0
2016-Jun-24 04:31N 28°08' W 015°25'0 0.0
2016-Jun-24 03:31N 28°08' W 015°25'0 0.0
2016-Jun-24 02:33N 28°08' W 015°25'0 0.0
2016-Jun-24 01:33N 28°08' W 015°25'1 1.3
2016-Jun-24 00:33N 28°07' W 015°24'8 8.4
2016-Jun-23 23:33N 28°14' W 015°18'2819.9
2016-Jun-23 22:09N 28°40' W 015°09'2019.6
2016-Jun-23 21:08N 28°60' W 015°03'25918.9
2016-Jun-23 07:27N 33°08' W 013°40'19419.6
2016-Jun-22 21:32N 36°15' W 012°35'1919.6
2016-Jun-22 20:33N 36°34' W 012°29'4019.7
2016-Jun-22 18:32N 37°11' W 012°14'2219.5
2016-Jun-22 17:26N 37°32' W 012°07'4319.4
2016-Jun-22 15:12N 38°14' W 011°53'1719.4
2016-Jun-22 14:20N 38°30' W 011°47'77118.4
2016-Jun-20 20:33N 49°49' W 003°19'1717.3
2016-Jun-20 19:33N 49°57' W 002°55'7217.6
2016-Jun-20 15:29N 49°46' W 001°05'1920.6
2016-Jun-20 14:34N 49°39' W 000°38'2019.6
2016-Jun-20 13:33N 49°33' W 000°10'1312.7
2016-Jun-20 12:33N 49°28' E 000°08'0 0.3
2016-Jun-20 11:33N 49°28' E 000°09'0 0.0
2016-Jun-20 10:33N 49°28' E 000°09'0 0.0
2016-Jun-20 09:33N 49°28' E 000°09'0 0.0
2016-Jun-20 08:33N 49°28' E 000°09'0 0.0
2016-Jun-20 07:33N 49°28' E 000°09'0 0.0
2016-Jun-20 06:33N 49°28' E 000°09'0 0.0
2016-Jun-20 05:33N 49°28' E 000°09'0 0.0
2016-Jun-20 04:34N 49°28' E 000°09'0 0.0
2016-Jun-20 03:31N 49°28' E 000°09'0 0.0
2016-Jun-20 02:31N 49°28' E 000°09'0 0.0
2016-Jun-20 01:33N 49°28' E 000°09'7 6.7
2016-Jun-20 00:33N 49°30' W 000°01'6 6.5
2016-Jun-19 23:33N 49°33' W 000°09'1 0.6
2016-Jun-19 22:31N 49°34' W 000°09'0 0.0
2016-Jun-19 21:31N 49°34' W 000°09'0 0.0
2016-Jun-19 20:31N 49°34' W 000°09'0 0.0
2016-Jun-19 19:31N 49°34' W 000°09'0 0.1
2016-Jun-19 18:31N 49°34' W 000°09'0 0.0
2016-Jun-19 17:31N 49°34' W 000°09'0 0.0
2016-Jun-19 16:31N 49°34' W 000°09'0 0.2
2016-Jun-19 15:31N 49°34' W 000°10'0 0.0
2016-Jun-19 14:31N 49°34' W 000°10'0 0.0
2016-Jun-19 13:31N 49°34' W 000°10'0 0.0
2016-Jun-19 12:28N 49°34' W 000°10'0 0.2
2016-Jun-19 11:31N 49°34' W 000°09'0 0.1
2016-Jun-19 10:31N 49°34' W 000°09'0 0.0
2016-Jun-19 09:31N 49°34' W 000°09'0 0.0
2016-Jun-19 08:31N 49°34' W 000°09'0 0.0
2016-Jun-19 07:31N 49°34' W 000°09'0 0.1
2016-Jun-19 06:31N 49°34' W 000°09'0 0.0
2016-Jun-19 05:31N 49°34' W 000°09'0 0.0
2016-Jun-19 04:31N 49°34' W 000°09'0 0.2
2016-Jun-19 03:28N 49°34' W 000°10'5 5.7
2016-Jun-19 02:34N 49°39' W 000°11'1616.3
2016-Jun-19 01:34N 49°55' W 000°11'1616.4
2016-Jun-19 00:33N 50°11' W 000°11'1615.7
2016-Jun-18 23:33N 50°26' W 000°03'1616.2
2016-Jun-18 22:33N 50°32' E 000°21'4715.7
2016-Jun-18 19:33N 50°58' E 001°23'1616.0
2016-Jun-18 18:34N 51°10' E 001°41'1918.5
2016-Jun-18 17:33N 51°27' E 001°51'1716.5
2016-Jun-18 16:33N 51°43' E 001°45'1313.2
2016-Jun-18 15:34N 51°54' E 001°34'1010.1
2016-Jun-18 14:32N 51°58' E 001°18'0 0.0
2016-Jun-18 13:32N 51°58' E 001°18'0 0.0
2016-Jun-18 12:32N 51°58' E 001°18'0 0.0
2016-Jun-18 11:32N 51°58' E 001°18'0 0.0
2016-Jun-18 10:32N 51°58' E 001°18'0 0.0
2016-Jun-18 09:32N 51°58' E 001°18'0 0.0
2016-Jun-18 08:32N 51°58' E 001°18'0 0.0
2016-Jun-18 07:32N 51°58' E 001°18'0 0.0
2016-Jun-18 06:32N 51°58' E 001°18'0 0.0
2016-Jun-18 05:32N 51°58' E 001°18'0 0.0
2016-Jun-18 04:28N 51°58' E 001°18'0 0.0
2016-Jun-18 03:31N 51°58' E 001°18'0 0.0
2016-Jun-18 02:31N 51°58' E 001°18'0 0.0
2016-Jun-18 01:31N 51°58' E 001°18'0 0.0
2016-Jun-18 00:33N 51°58' E 001°18'0 0.2
2016-Jun-17 23:33N 51°57' E 001°18'7 6.6
2016-Jun-17 22:33N 51°56' E 001°28'9 8.9
2016-Jun-17 21:33N 51°52' E 001°41'2 1.8
2016-Jun-17 20:33N 51°53' E 001°40'0 0.0
2016-Jun-17 19:33N 51°53' E 001°40'0 0.0
2016-Jun-17 18:33N 51°53' E 001°40'0 0.0
2016-Jun-17 17:33N 51°53' E 001°40'0 0.0
2016-Jun-17 16:33N 51°53' E 001°40'0 0.0
2016-Jun-17 15:33N 51°53' E 001°40'0 0.3
2016-Jun-17 14:33N 51°54' E 001°40'0 0.0
2016-Jun-17 13:33N 51°54' E 001°40'  
Track history (hours):
 
Tides and Currents Weather Stations Pressure Air Temp Water Temp Dewpoint Dewpoint Depression Visibility Wind Speed Wind Dir Waves Ship Positions

MSC Jordan

Last reported at 2016-Jun-27 12:33 UTC. Time now 2016-Jul-01 22:42 UTC.
Position N 13°56' W 017°24'.

Length 237 m; draft 10.4 m.

Type: Ship. MMSI: 355194000.

Date/timePositionNaut miles runAvg speedWind from/ knotsBaromVisibWave heightAir tempDewpointWater temp
2016-Jun-27 12:33N 13°56' W 017°24'2519.4
2016-Jun-27 11:17N 14°20' W 017°24'1419.2
2016-Jun-27 10:33N 14°34' W 017°23'7 7.2
2016-Jun-27 09:33N 14°41' W 017°26'0 0.2
2016-Jun-27 08:31N 14°41' W 017°26'0 0.0
2016-Jun-27 07:10N 14°41' W 017°26'0 0.0
2016-Jun-27 06:31N 14°41' W 017°26'0 0.0
2016-Jun-27 05:31N 14°41' W 017°26'0 0.0
2016-Jun-27 04:31N 14°41' W 017°26'0 0.0
2016-Jun-27 03:33N 14°41' W 017°26'0 0.0
2016-Jun-27 02:31N 14°41' W 017°26'0 0.0
2016-Jun-27 01:33N 14°41' W 017°26'0 0.0
2016-Jun-27 00:33N 14°41' W 017°26'0 0.0
2016-Jun-26 23:33N 14°41' W 017°26'1 0.5
2016-Jun-26 22:33N 14°41' W 017°25'4 4.0
2016-Jun-26 21:33N 14°39' W 017°21'1010.1
2016-Jun-26 20:33N 14°29' W 017°23'4 3.7
2016-Jun-26 19:34N 14°26' W 017°24'1 0.9
2016-Jun-26 18:33N 14°26' W 017°25'1 0.7
2016-Jun-26 17:33N 14°27' W 017°25'2 0.8
2016-Jun-26 14:33N 14°28' W 017°27'1 0.8
2016-Jun-26 13:29N 14°28' W 017°28'2 0.7
2016-Jun-26 11:05N 14°29' W 017°30'0 0.5
2016-Jun-26 10:28N 14°29' W 017°30'2 1.1
2016-Jun-26 09:05N 14°31' W 017°30'4 7.3
2016-Jun-26 08:33N 14°34' W 017°33'1818.2
2016-Jun-26 07:33N 14°52' W 017°36'2019.6
2016-Jun-26 06:33N 15°12' W 017°36'1919.6
2016-Jun-26 05:33N 15°31' W 017°37'2019.6
2016-Jun-26 04:33N 15°51' W 017°36'3919.5
2016-Jun-26 02:33N 16°30' W 017°38'2019.5
2016-Jun-26 01:33N 16°49' W 017°39'40719.0
2016-Jun-25 04:09N 23°34' W 016°57'1718.9
2016-Jun-25 03:13N 23°51' W 016°51'1319.0
2016-Jun-25 02:31N 24°03' W 016°47'4519.4
2016-Jun-25 00:13N 24°46' W 016°31'20619.3
2016-Jun-24 13:33N 28°01' W 015°17'10 9.6
2016-Jun-24 12:34N 28°08' W 015°25'0 0.1
2016-Jun-24 11:33N 28°08' W 015°25'0 0.0
2016-Jun-24 10:33N 28°08' W 015°25'0 0.0
2016-Jun-24 09:33N 28°08' W 015°25'0 0.0
2016-Jun-24 08:33N 28°08' W 015°25'0 0.0
2016-Jun-24 07:32N 28°08' W 015°25'0 0.0
2016-Jun-24 04:31N 28°08' W 015°25'0 0.0
2016-Jun-24 03:31N 28°08' W 015°25'0 0.0
2016-Jun-24 02:33N 28°08' W 015°25'0 0.0
2016-Jun-24 01:33N 28°08' W 015°25'1 1.3
2016-Jun-24 00:33N 28°07' W 015°24'8 8.4
2016-Jun-23 23:33N 28°14' W 015°18'2819.9
2016-Jun-23 22:09N 28°40' W 015°09'2019.6
2016-Jun-23 21:08N 28°60' W 015°03'25918.9
2016-Jun-23 07:27N 33°08' W 013°40'19419.6
2016-Jun-22 21:32N 36°15' W 012°35'1919.6
2016-Jun-22 20:33N 36°34' W 012°29'4019.7
2016-Jun-22 18:32N 37°11' W 012°14'2219.5
2016-Jun-22 17:26N 37°32' W 012°07'4319.4
2016-Jun-22 15:12N 38°14' W 011°53'1719.4
2016-Jun-22 14:20N 38°30' W 011°47'77118.4
2016-Jun-20 20:33N 49°49' W 003°19'1717.3
2016-Jun-20 19:33N 49°57' W 002°55'7217.6
2016-Jun-20 15:29N 49°46' W 001°05'1920.6
2016-Jun-20 14:34N 49°39' W 000°38'2019.6
2016-Jun-20 13:33N 49°33' W 000°10'1312.7
2016-Jun-20 12:33N 49°28' E 000°08'0 0.3
2016-Jun-20 11:33N 49°28' E 000°09'0 0.0
2016-Jun-20 10:33N 49°28' E 000°09'0 0.0
2016-Jun-20 09:33N 49°28' E 000°09'0 0.0
2016-Jun-20 08:33N 49°28' E 000°09'0 0.0
2016-Jun-20 07:33N 49°28' E 000°09'0 0.0
2016-Jun-20 06:33N 49°28' E 000°09'0 0.0
2016-Jun-20 05:33N 49°28' E 000°09'0 0.0
2016-Jun-20 04:34N 49°28' E 000°09'0 0.0
2016-Jun-20 03:31N 49°28' E 000°09'0 0.0
2016-Jun-20 02:31N 49°28' E 000°09'0 0.0
2016-Jun-20 01:33N 49°28' E 000°09'7 6.7
2016-Jun-20 00:33N 49°30' W 000°01'6 6.5
2016-Jun-19 23:33N 49°33' W 000°09'1 0.6
2016-Jun-19 22:31N 49°34' W 000°09'0 0.0
2016-Jun-19 21:31N 49°34' W 000°09'0 0.0
2016-Jun-19 20:31N 49°34' W 000°09'0 0.0
2016-Jun-19 19:31N 49°34' W 000°09'0 0.1
2016-Jun-19 18:31N 49°34' W 000°09'0 0.0
2016-Jun-19 17:31N 49°34' W 000°09'0 0.0
2016-Jun-19 16:31N 49°34' W 000°09'0 0.2
2016-Jun-19 15:31N 49°34' W 000°10'0 0.0
2016-Jun-19 14:31N 49°34' W 000°10'0 0.0
2016-Jun-19 13:31N 49°34' W 000°10'0 0.0
2016-Jun-19 12:28N 49°34' W 000°10'0 0.2
2016-Jun-19 11:31N 49°34' W 000°09'0 0.1
2016-Jun-19 10:31N 49°34' W 000°09'0 0.0
2016-Jun-19 09:31N 49°34' W 000°09'0 0.0
2016-Jun-19 08:31N 49°34' W 000°09'0 0.0
2016-Jun-19 07:31N 49°34' W 000°09'0 0.1
2016-Jun-19 06:31N 49°34' W 000°09'0 0.0
2016-Jun-19 05:31N 49°34' W 000°09'0 0.0
2016-Jun-19 04:31N 49°34' W 000°09'0 0.2
2016-Jun-19 03:28N 49°34' W 000°10'5 5.7
2016-Jun-19 02:34N 49°39' W 000°11'1616.3
2016-Jun-19 01:34N 49°55' W 000°11'1616.4
2016-Jun-19 00:33N 50°11' W 000°11'1615.7
2016-Jun-18 23:33N 50°26' W 000°03'1616.2
2016-Jun-18 22:33N 50°32' E 000°21'4715.7
2016-Jun-18 19:33N 50°58' E 001°23'1616.0
2016-Jun-18 18:34N 51°10' E 001°41'1918.5
2016-Jun-18 17:33N 51°27' E 001°51'1716.5
2016-Jun-18 16:33N 51°43' E 001°45'1313.2
2016-Jun-18 15:34N 51°54' E 001°34'1010.1
2016-Jun-18 14:32N 51°58' E 001°18'0 0.0
2016-Jun-18 13:32N 51°58' E 001°18'0 0.0
2016-Jun-18 12:32N 51°58' E 001°18'0 0.0
2016-Jun-18 11:32N 51°58' E 001°18'0 0.0
2016-Jun-18 10:32N 51°58' E 001°18'0 0.0
2016-Jun-18 09:32N 51°58' E 001°18'0 0.0
2016-Jun-18 08:32N 51°58' E 001°18'0 0.0
2016-Jun-18 07:32N 51°58' E 001°18'0 0.0
2016-Jun-18 06:32N 51°58' E 001°18'0 0.0
2016-Jun-18 05:32N 51°58' E 001°18'0 0.0
2016-Jun-18 04:28N 51°58' E 001°18'0 0.0
2016-Jun-18 03:31N 51°58' E 001°18'0 0.0
2016-Jun-18 02:31N 51°58' E 001°18'0 0.0
2016-Jun-18 01:31N 51°58' E 001°18'0 0.0
2016-Jun-18 00:33N 51°58' E 001°18'0 0.2
2016-Jun-17 23:33N 51°57' E 001°18'7 6.6
2016-Jun-17 22:33N 51°56' E 001°28'9 8.9
2016-Jun-17 21:33N 51°52' E 001°41'2 1.8
2016-Jun-17 20:33N 51°53' E 001°40'0 0.0
2016-Jun-17 19:33N 51°53' E 001°40'0 0.0
2016-Jun-17 18:33N 51°53' E 001°40'0 0.0
2016-Jun-17 17:33N 51°53' E 001°40'0 0.0
2016-Jun-17 16:33N 51°53' E 001°40'0 0.0
2016-Jun-17 15:33N 51°53' E 001°40'0 0.3
2016-Jun-17 14:33N 51°54' E 001°40'0 0.0
2016-Jun-17 13:33N 51°54' E 001°40'  

Dump ship's entire track history